• Join FlightAware (Why Join?)
  • Login
  • US Flag 
02:14AM EDT


 

Airport Tracker/Info


-or-


 

Live Flight TrackerFlight Track Log ✈ ASH3732 ✈ 07-Jul-2013 ✈ KRDU - KIAD

Flight Track Log - Related Links

Times and Time Zones

All times are in EDT time to prevent confusion due to time zone crossing. See the ASH3732 flight status page for this flight to view local times or setup timezone preferences in your user account.

Time Position Orientation Groundspeed Altitude Reporting Facility
EDT Latitude Longitude Course Direction KTS MPH feet Rate Location/Type
06:36AM 35.8686 -78.8114 11° North 145 167 1,500  Level Washington Center
06:37AM 35.8531 -78.8442 240° Southwest 173 199 2,700 2,400 Climbing Washington Center
06:38AM 35.8903 -78.8583 343° North 222 255 4,600 2,520 Climbing Washington Center
06:39AM 36.1206 -78.6918 18° North  Level FlightAware Approximate
06:39AM 35.9408 -78.8425 14° North 239 275 7,000  Level Washington Center
06:40AM 36.2050 -78.6580 18° North  Level FlightAware Approximate
06:40AM 36.0128 -78.8069 22° Northeast 247 284 8,700  Level Washington Center
06:41AM 36.2894 -78.6243 18° North  Level FlightAware Approximate
06:41AM 36.0931 -78.7639 23° Northeast 276 318 11,200  Level Washington Center
06:41AM 36.1906 -78.7114 23° Northeast 319 367 12,900 2,100 Climbing Washington Center
06:42AM 36.3745 -78.5939 11° North  Level FlightAware Approximate
06:43AM 36.2858 -78.6608 23° Northeast 365 420 15,500  Level Washington Center
06:44AM 36.3808 -78.6131 22° Northeast 371 427 17,200 1,500 Climbing Washington Center
06:45AM 36.4778 -78.5703 20° North 378 435 18,600 1,200 Climbing Washington Center
06:46AM 36.5872 -78.5331 15° North 394 453 19,700 1,260 Climbing Washington Center
06:46AM 36.7033 -78.4858 18° North 412 474 21,100 1,140 Climbing Washington Center
06:48AM 36.8281 -78.4100 26° Northeast 430 495 22,000 420 Climbing Washington Center
06:49AM 36.9322 -78.3253 33° Northeast 445 512 22,000  Level Washington Center
06:49AM 37.0386 -78.2356 34° Northeast 459 528 22,000  Level Washington Center
06:51AM 37.1236 -78.1681 32° Northeast 459 528 22,000  Level Washington Center
06:52AM 37.2467 -78.0678 33° Northeast 444 511 22,000  Level Washington Center
06:53AM 37.3486 -77.9797 34° Northeast 439 505 22,000 -180 Level Washington Center
06:54AM 37.4547 -77.8914 33° Northeast 450 518 21,700 -1,200 Descending Washington Center
06:55AM 37.5606 -77.8081 32° Northeast 450 518 19,700 -1,920 Descending Washington Center
06:56AM 37.6700 -77.7458 24° Northeast 432 497 17,800 -2,040 Descending Washington Center
06:56AM 37.7733 -77.6856 25° Northeast 418 481 15,800 -2,100 Descending Washington Center
06:57AM 37.8703 -77.6278 25° Northeast 398 458 13,800 -1,980 Descending Washington Center
06:59AM 37.9692 -77.5700 25° Northeast 384 442 11,800 -1,860 Descending Washington Center
07:00AM 38.0597 -77.5197 24° Northeast 372 428 10,100 -900 Descending Washington Center
07:01AM 38.1397 -77.4742 24° Northeast 337 388 10,000 -60 Descending Washington Center
07:02AM 38.2156 -77.4283 25° Northeast 316 364 10,000 -420 Level Washington Center
07:03AM 38.2914 -77.3828 25° Northeast 302 348 9,200 -1,200 Descending Washington Center
07:03AM 38.3708 -77.3556 15° North 302 348 7,700 -1,560 Descending Washington Center
07:05AM 38.4439 -77.3625 356° North 288 331 6,200 -1,380 Descending Washington Center
07:06AM 38.5208 -77.3642 359° North 283 326 5,000 -660 Descending Washington Center
07:07AM 38.5958 -77.3661 359° North 273 314 4,900 -600 Descending Washington Center
07:07AM 38.6667 -77.3667 360° North 274 315 4,000 -600 Descending Potomac TRACON
07:08AM 38.7333 -77.3667 360° North 268 308 4,000 -120 Level Potomac TRACON
07:09AM 38.8000 -77.3500 11° North 268 308 3,800 -540 Descending Potomac TRACON
07:10AM 38.8667 -77.3500 360° North 257 296 3,000 -480 Descending Potomac TRACON
07:11AM 38.9333 -77.3500 360° North 260 299 3,000  Level Potomac TRACON
07:12AM 39.0167 -77.3500 360° North 260 299 3,000 -180 Level Potomac TRACON
07:13AM 39.0667 -77.3667 345° North 212 244 2,700 -360 Descending Potomac TRACON